sensor_id;sensor_type;location;lat;lon;timestamp;pressure;altitude;pressure_sealevel;temperature;humidity
498;BME280;39559;48.630;9.162;2022-08-03T00:01:15;97550.41;;;15.34;100.00
498;BME280;39559;48.630;9.162;2022-08-03T00:05:37;97544.97;;;15.23;100.00
498;BME280;39559;48.630;9.162;2022-08-03T00:08:02;97540.00;;;15.19;100.00
498;BME280;39559;48.630;9.162;2022-08-03T00:10:28;97549.63;;;15.18;100.00
498;BME280;39559;48.630;9.162;2022-08-03T00:12:54;97536.19;;;15.24;100.00
498;BME280;39559;48.630;9.162;2022-08-03T00:15:20;97547.31;;;15.28;100.00
498;BME280;39559;48.630;9.162;2022-08-03T00:17:45;97543.09;;;15.25;100.00
498;BME280;39559;48.630;9.162;2022-08-03T00:20:11;97547.69;;;15.22;100.00
498;BME280;39559;48.630;9.162;2022-08-03T00:22:37;97551.59;;;15.14;100.00
498;BME280;39559;48.630;9.162;2022-08-03T00:25:03;97548.16;;;15.14;100.00
498;BME280;39559;48.630;9.162;2022-08-03T00:29:33;97549.47;;;15.21;100.00
498;BME280;39559;48.630;9.162;2022-08-03T00:31:58;97548.31;;;15.11;100.00
498;BME280;39559;48.630;9.162;2022-08-03T00:34:24;97543.66;;;15.02;100.00
498;BME280;39559;48.630;9.162;2022-08-03T00:36:49;97552.25;;;15.04;100.00
498;BME280;39559;48.630;9.162;2022-08-03T00:39:15;97545.88;;;15.08;100.00
498;BME280;39559;48.630;9.162;2022-08-03T00:41:40;97548.78;;;15.03;100.00
498;BME280;39559;48.630;9.162;2022-08-03T00:44:06;97546.19;;;15.03;100.00
498;BME280;39559;48.630;9.162;2022-08-03T00:46:31;97539.25;;;15.02;100.00
498;BME280;39559;48.630;9.162;2022-08-03T00:48:57;97538.13;;;14.92;100.00
498;BME280;39559;48.630;9.162;2022-08-03T00:53:29;97541.75;;;14.89;100.00
498;BME280;39559;48.630;9.162;2022-08-03T00:55:55;97542.03;;;14.85;100.00
498;BME280;39559;48.630;9.162;2022-08-03T00:58:20;97541.00;;;14.87;100.00
498;BME280;39559;48.630;9.162;2022-08-03T01:00:46;97544.38;;;14.89;100.00
498;BME280;39559;48.630;9.162;2022-08-03T01:03:12;97539.34;;;14.86;100.00
498;BME280;39559;48.630;9.162;2022-08-03T01:06:17;97536.91;;;14.83;100.00
498;BME280;39559;48.630;9.162;2022-08-03T01:08:53;97532.13;;;14.75;100.00
498;BME280;39559;48.630;9.162;2022-08-03T01:14:20;97525.38;;;14.71;100.00
498;BME280;39559;48.630;9.162;2022-08-03T01:17:32;97529.72;;;14.87;100.00
498;BME280;39559;48.630;9.162;2022-08-03T01:20:03;97533.81;;;14.91;100.00
498;BME280;39559;48.630;9.162;2022-08-03T01:25:35;97522.03;;;14.84;100.00
498;BME280;39559;48.630;9.162;2022-08-03T01:31:07;97514.84;;;14.73;100.00
498;BME280;39559;48.630;9.162;2022-08-03T01:33:38;97510.56;;;14.72;100.00
498;BME280;39559;48.630;9.162;2022-08-03T01:36:08;97514.25;;;14.68;100.00
498;BME280;39559;48.630;9.162;2022-08-03T01:41:21;97506.19;;;14.56;100.00
498;BME280;39559;48.630;9.162;2022-08-03T01:43:50;97506.25;;;14.55;100.00
498;BME280;39559;48.630;9.162;2022-08-03T01:46:18;97504.50;;;14.55;100.00
498;BME280;39559;48.630;9.162;2022-08-03T01:48:49;97505.88;;;14.63;100.00
498;BME280;39559;48.630;9.162;2022-08-03T01:51:17;97503.56;;;14.56;100.00
498;BME280;39559;48.630;9.162;2022-08-03T01:53:43;97508.22;;;14.51;100.00
498;BME280;39559;48.630;9.162;2022-08-03T01:56:11;97507.47;;;14.49;100.00
498;BME280;39559;48.630;9.162;2022-08-03T01:58:38;97500.81;;;14.44;100.00
498;BME280;39559;48.630;9.162;2022-08-03T02:01:05;97499.38;;;14.54;100.00
498;BME280;39559;48.630;9.162;2022-08-03T02:05:13;97500.34;;;14.37;100.00
498;BME280;39559;48.630;9.162;2022-08-03T02:07:41;97500.44;;;14.35;100.00
498;BME280;39559;48.630;9.162;2022-08-03T02:10:07;97498.31;;;14.42;100.00
498;BME280;39559;48.630;9.162;2022-08-03T02:12:39;97498.38;;;14.40;100.00
498;BME280;39559;48.630;9.162;2022-08-03T02:15:07;97503.97;;;14.34;100.00
498;BME280;39559;48.630;9.162;2022-08-03T02:17:35;97504.06;;;14.33;100.00
498;BME280;39559;48.630;9.162;2022-08-03T02:20:02;97498.16;;;14.29;100.00
498;BME280;39559;48.630;9.162;2022-08-03T02:22:29;97499.44;;;14.22;100.00
498;BME280;39559;48.630;9.162;2022-08-03T02:24:56;97503.91;;;14.20;100.00
498;BME280;39559;48.630;9.162;2022-08-03T02:29:19;97499.94;;;14.29;100.00
498;BME280;39559;48.630;9.162;2022-08-03T02:31:48;97501.31;;;14.20;100.00
498;BME280;39559;48.630;9.162;2022-08-03T02:34:15;97506.03;;;14.13;100.00
498;BME280;39559;48.630;9.162;2022-08-03T02:36:45;97500.91;;;14.12;100.00
498;BME280;39559;48.630;9.162;2022-08-03T02:39:16;97506.81;;;14.15;100.00
498;BME280;39559;48.630;9.162;2022-08-03T02:41:48;97504.94;;;14.17;100.00
498;BME280;39559;48.630;9.162;2022-08-03T02:44:16;97501.38;;;14.18;100.00
498;BME280;39559;48.630;9.162;2022-08-03T02:46:44;97504.44;;;14.11;100.00
498;BME280;39559;48.630;9.162;2022-08-03T02:49:12;97498.38;;;14.10;100.00
498;BME280;39559;48.630;9.162;2022-08-03T02:53:07;97487.66;;;14.15;100.00
498;BME280;39559;48.630;9.162;2022-08-03T02:55:34;97492.97;;;14.13;100.00
498;BME280;39559;48.630;9.162;2022-08-03T02:58:02;97496.69;;;14.09;100.00
498;BME280;39559;48.630;9.162;2022-08-03T03:00:30;97500.41;;;14.05;100.00
498;BME280;39559;48.630;9.162;2022-08-03T03:02:58;97498.03;;;14.00;100.00
498;BME280;39559;48.630;9.162;2022-08-03T03:05:24;97497.38;;;13.97;100.00
498;BME280;39559;48.630;9.162;2022-08-03T03:07:50;97494.00;;;13.95;100.00
498;BME280;39559;48.630;9.162;2022-08-03T03:10:16;97498.25;;;13.97;100.00
498;BME280;39559;48.630;9.162;2022-08-03T03:12:44;97502.28;;;14.03;100.00
498;BME280;39559;48.630;9.162;2022-08-03T03:17:05;97495.72;;;13.96;100.00
498;BME280;39559;48.630;9.162;2022-08-03T03:19:32;97506.31;;;13.93;100.00
498;BME280;39559;48.630;9.162;2022-08-03T03:22:02;97499.44;;;13.92;100.00
498;BME280;39559;48.630;9.162;2022-08-03T03:24:31;97501.25;;;13.90;100.00
498;BME280;39559;48.630;9.162;2022-08-03T03:26:57;97499.22;;;13.95;100.00
498;BME280;39559;48.630;9.162;2022-08-03T03:29:23;97496.97;;;13.89;100.00
498;BME280;39559;48.630;9.162;2022-08-03T03:31:49;97487.81;;;13.81;100.00
498;BME280;39559;48.630;9.162;2022-08-03T03:34:15;97491.69;;;13.74;100.00
498;BME280;39559;48.630;9.162;2022-08-03T03:36:42;97488.31;;;13.72;100.00
498;BME280;39559;48.630;9.162;2022-08-03T03:41:00;97492.13;;;13.82;100.00
498;BME280;39559;48.630;9.162;2022-08-03T03:43:25;97487.97;;;13.78;100.00
498;BME280;39559;48.630;9.162;2022-08-03T03:45:51;97487.88;;;13.80;100.00
498;BME280;39559;48.630;9.162;2022-08-03T03:48:18;97494.88;;;13.79;100.00
498;BME280;39559;48.630;9.162;2022-08-03T03:50:45;97491.69;;;13.74;100.00
498;BME280;39559;48.630;9.162;2022-08-03T03:53:12;97494.44;;;13.71;100.00
498;BME280;39559;48.630;9.162;2022-08-03T03:55:38;97492.34;;;13.78;100.00
498;BME280;39559;48.630;9.162;2022-08-03T03:58:33;97495.63;;;13.81;100.00
498;BME280;39559;48.630;9.162;2022-08-03T04:01:00;97491.59;;;13.76;100.00
498;BME280;39559;48.630;9.162;2022-08-03T04:04:58;97505.25;;;13.65;100.00
498;BME280;39559;48.630;9.162;2022-08-03T04:07:57;97496.38;;;13.68;100.00
498;BME280;39559;48.630;9.162;2022-08-03T04:11:00;97504.31;;;13.66;100.00
498;BME280;39559;48.630;9.162;2022-08-03T04:16:20;97506.50;;;13.58;100.00
498;BME280;39559;48.630;9.162;2022-08-03T04:18:54;97497.94;;;13.72;100.00
498;BME280;39559;48.630;9.162;2022-08-03T04:21:23;97514.75;;;13.66;100.00
498;BME280;39559;48.630;9.162;2022-08-03T04:23:52;97506.00;;;13.67;100.00
498;BME280;39559;48.630;9.162;2022-08-03T04:28:53;97502.53;;;13.67;100.00
498;BME280;39559;48.630;9.162;2022-08-03T04:31:23;97500.78;;;13.67;100.00
498;BME280;39559;48.630;9.162;2022-08-03T04:33:52;97508.19;;;13.59;100.00
498;BME280;39559;48.630;9.162;2022-08-03T04:36:21;97510.81;;;13.59;100.00
498;BME280;39559;48.630;9.162;2022-08-03T04:39:05;97511.38;;;13.64;100.00
498;BME280;39559;48.630;9.162;2022-08-03T04:41:33;97504.63;;;13.60;100.00
498;BME280;39559;48.630;9.162;2022-08-03T04:44:00;97503.47;;;13.81;100.00
498;BME280;39559;48.630;9.162;2022-08-03T04:46:34;97513.56;;;13.88;100.00
498;BME280;39559;48.630;9.162;2022-08-03T04:49:01;97516.91;;;13.90;100.00
498;BME280;39559;48.630;9.162;2022-08-03T04:52:49;97521.81;;;13.80;100.00
498;BME280;39559;48.630;9.162;2022-08-03T04:55:31;97517.19;;;13.85;100.00
498;BME280;39559;48.630;9.162;2022-08-03T04:57:57;97517.44;;;13.96;100.00
498;BME280;39559;48.630;9.162;2022-08-03T05:00:23;97526.22;;;13.95;100.00
498;BME280;39559;48.630;9.162;2022-08-03T05:02:49;97529.41;;;13.85;100.00
498;BME280;39559;48.630;9.162;2022-08-03T05:05:15;97522.50;;;13.83;100.00
498;BME280;39559;48.630;9.162;2022-08-03T05:07:41;97530.41;;;13.82;100.00
498;BME280;39559;48.630;9.162;2022-08-03T05:10:09;97526.97;;;13.81;100.00
498;BME280;39559;48.630;9.162;2022-08-03T05:12:35;97535.47;;;13.85;100.00
498;BME280;39559;48.630;9.162;2022-08-03T05:16:46;97520.19;;;13.93;100.00
498;BME280;39559;48.630;9.162;2022-08-03T05:19:11;97534.72;;;13.99;100.00
498;BME280;39559;48.630;9.162;2022-08-03T05:21:37;97520.47;;;14.05;100.00
498;BME280;39559;48.630;9.162;2022-08-03T05:24:02;97524.97;;;14.17;100.00
498;BME280;39559;48.630;9.162;2022-08-03T05:26:28;97525.75;;;14.19;100.00
498;BME280;39559;48.630;9.162;2022-08-03T05:28:53;97526.16;;;14.27;100.00
498;BME280;39559;48.630;9.162;2022-08-03T05:31:19;97532.22;;;14.28;100.00
498;BME280;39559;48.630;9.162;2022-08-03T05:33:44;97534.22;;;14.38;100.00
498;BME280;39559;48.630;9.162;2022-08-03T05:36:12;97530.22;;;14.47;100.00
498;BME280;39559;48.630;9.162;2022-08-03T05:40:42;97527.78;;;14.44;100.00
498;BME280;39559;48.630;9.162;2022-08-03T05:43:07;97527.16;;;14.55;100.00
498;BME280;39559;48.630;9.162;2022-08-03T05:45:33;97529.03;;;14.69;100.00
498;BME280;39559;48.630;9.162;2022-08-03T05:47:58;97533.63;;;14.80;100.00
498;BME280;39559;48.630;9.162;2022-08-03T05:50:24;97533.25;;;14.86;100.00
498;BME280;39559;48.630;9.162;2022-08-03T05:52:49;97530.94;;;14.95;100.00
498;BME280;39559;48.630;9.162;2022-08-03T05:55:15;97528.78;;;15.02;100.00
498;BME280;39559;48.630;9.162;2022-08-03T05:57:41;97533.94;;;15.04;100.00
498;BME280;39559;48.630;9.162;2022-08-03T06:00:09;97532.06;;;15.20;100.00
498;BME280;39559;48.630;9.162;2022-08-03T06:04:38;97528.34;;;15.39;100.00
498;BME280;39559;48.630;9.162;2022-08-03T06:07:04;97530.59;;;15.45;100.00
498;BME280;39559;48.630;9.162;2022-08-03T06:09:29;97525.44;;;15.58;100.00
498;BME280;39559;48.630;9.162;2022-08-03T06:11:55;97527.38;;;15.68;100.00
498;BME280;39559;48.630;9.162;2022-08-03T06:14:20;97533.53;;;15.67;100.00
498;BME280;39559;48.630;9.162;2022-08-03T06:16:46;97529.38;;;15.79;100.00
498;BME280;39559;48.630;9.162;2022-08-03T06:19:12;97520.06;;;15.88;100.00
498;BME280;39559;48.630;9.162;2022-08-03T06:21:37;97524.63;;;15.99;100.00
498;BME280;39559;48.630;9.162;2022-08-03T06:24:03;97526.56;;;16.09;100.00
498;BME280;39559;48.630;9.162;2022-08-03T06:28:34;97524.66;;;16.39;100.00
498;BME280;39559;48.630;9.162;2022-08-03T06:31:00;97526.03;;;16.44;100.00
498;BME280;39559;48.630;9.162;2022-08-03T06:33:26;97525.22;;;16.57;100.00
498;BME280;39559;48.630;9.162;2022-08-03T06:35:52;97525.25;;;16.69;100.00
498;BME280;39559;48.630;9.162;2022-08-03T06:38:17;97519.19;;;16.82;100.00
498;BME280;39559;48.630;9.162;2022-08-03T06:40:43;97522.38;;;17.00;100.00
498;BME280;39559;48.630;9.162;2022-08-03T06:43:08;97531.19;;;17.12;100.00
498;BME280;39559;48.630;9.162;2022-08-03T06:45:34;97530.97;;;17.27;100.00
498;BME280;39559;48.630;9.162;2022-08-03T06:48:08;97528.25;;;17.42;100.00
498;BME280;39559;48.630;9.162;2022-08-03T06:52:32;97524.00;;;17.65;100.00
498;BME280;39559;48.630;9.162;2022-08-03T06:54:58;97537.72;;;17.81;100.00
498;BME280;39559;48.630;9.162;2022-08-03T06:57:23;97533.50;;;17.92;100.00
498;BME280;39559;48.630;9.162;2022-08-03T06:59:49;97523.34;;;18.11;100.00
498;BME280;39559;48.630;9.162;2022-08-03T07:02:15;97530.84;;;18.29;100.00
498;BME280;39559;48.630;9.162;2022-08-03T07:04:40;97533.22;;;18.45;100.00
498;BME280;39559;48.630;9.162;2022-08-03T07:07:06;97533.88;;;18.71;100.00
498;BME280;39559;48.630;9.162;2022-08-03T07:09:32;97532.69;;;18.75;100.00
498;BME280;39559;48.630;9.162;2022-08-03T07:11:57;97529.28;;;18.86;100.00
498;BME280;39559;48.630;9.162;2022-08-03T07:16:28;97531.00;;;19.21;100.00
498;BME280;39559;48.630;9.162;2022-08-03T07:18:54;97523.03;;;19.45;100.00
498;BME280;39559;48.630;9.162;2022-08-03T07:21:19;97526.97;;;19.84;100.00
498;BME280;39559;48.630;9.162;2022-08-03T07:23:45;97523.38;;;19.85;100.00
498;BME280;39559;48.630;9.162;2022-08-03T07:26:10;97519.13;;;20.05;100.00
498;BME280;39559;48.630;9.162;2022-08-03T07:28:36;97519.69;;;20.20;100.00
498;BME280;39559;48.630;9.162;2022-08-03T07:31:01;97516.53;;;20.38;100.00
498;BME280;39559;48.630;9.162;2022-08-03T07:33:27;97526.78;;;20.52;100.00
498;BME280;39559;48.630;9.162;2022-08-03T07:35:53;97528.41;;;20.64;100.00
498;BME280;39559;48.630;9.162;2022-08-03T07:40:25;97512.13;;;21.01;100.00
498;BME280;39559;48.630;9.162;2022-08-03T07:42:50;97524.03;;;21.17;100.00
498;BME280;39559;48.630;9.162;2022-08-03T07:45:16;97525.22;;;21.34;100.00
498;BME280;39559;48.630;9.162;2022-08-03T07:47:42;97519.47;;;21.50;100.00
498;BME280;39559;48.630;9.162;2022-08-03T07:50:07;97529.88;;;21.72;100.00
498;BME280;39559;48.630;9.162;2022-08-03T07:52:33;97516.53;;;21.83;100.00
498;BME280;39559;48.630;9.162;2022-08-03T07:55:18;97519.31;;;21.92;100.00
498;BME280;39559;48.630;9.162;2022-08-03T07:57:44;97515.16;;;21.99;100.00
498;BME280;39559;48.630;9.162;2022-08-03T08:00:15;97515.75;;;22.12;98.08
498;BME280;39559;48.630;9.162;2022-08-03T08:04:21;97510.09;;;22.36;90.89
498;BME280;39559;48.630;9.162;2022-08-03T08:06:47;97512.47;;;22.49;93.21
498;BME280;39559;48.630;9.162;2022-08-03T08:09:13;97501.88;;;22.59;93.10
498;BME280;39559;48.630;9.162;2022-08-03T08:11:39;97499.09;;;22.70;93.06
498;BME280;39559;48.630;9.162;2022-08-03T08:14:04;97505.75;;;22.84;87.15
498;BME280;39559;48.630;9.162;2022-08-03T08:16:31;97503.06;;;23.04;86.25
498;BME280;39559;48.630;9.162;2022-08-03T08:18:57;97504.75;;;22.95;84.80
498;BME280;39559;48.630;9.162;2022-08-03T08:21:22;97507.53;;;23.13;82.86
498;BME280;39559;48.630;9.162;2022-08-03T08:23:48;97510.13;;;23.23;83.18
498;BME280;39559;48.630;9.162;2022-08-03T08:28:19;97507.00;;;23.47;81.67
498;BME280;39559;48.630;9.162;2022-08-03T08:30:45;97496.41;;;23.47;85.08
498;BME280;39559;48.630;9.162;2022-08-03T08:33:11;97501.56;;;23.76;83.31
498;BME280;39559;48.630;9.162;2022-08-03T08:35:36;97509.22;;;24.07;80.70
498;BME280;39559;48.630;9.162;2022-08-03T08:38:02;97503.91;;;24.43;72.49
498;BME280;39559;48.630;9.162;2022-08-03T08:40:28;97492.84;;;24.29;73.54
498;BME280;39559;48.630;9.162;2022-08-03T08:42:54;97491.41;;;24.35;70.75
498;BME280;39559;48.630;9.162;2022-08-03T08:45:20;97493.53;;;24.49;73.34
498;BME280;39559;48.630;9.162;2022-08-03T08:47:47;97492.94;;;24.56;74.33
498;BME280;39559;48.630;9.162;2022-08-03T08:52:15;97495.59;;;24.56;78.56
498;BME280;39559;48.630;9.162;2022-08-03T08:54:40;97498.28;;;24.82;68.75
498;BME280;39559;48.630;9.162;2022-08-03T08:57:08;97494.81;;;24.81;70.36
498;BME280;39559;48.630;9.162;2022-08-03T08:59:34;97503.47;;;24.83;71.36
498;BME280;39559;48.630;9.162;2022-08-03T09:02:00;97495.94;;;25.05;68.99
498;BME280;39559;48.630;9.162;2022-08-03T09:04:30;97498.03;;;25.19;67.94
498;BME280;39559;48.630;9.162;2022-08-03T09:06:56;97492.69;;;25.19;67.78
498;BME280;39559;48.630;9.162;2022-08-03T09:09:22;97494.63;;;25.27;71.19
498;BME280;39559;48.630;9.162;2022-08-03T09:11:48;97496.94;;;25.56;66.45
498;BME280;39559;48.630;9.162;2022-08-03T09:16:18;97489.31;;;25.61;62.85
498;BME280;39559;48.630;9.162;2022-08-03T09:18:51;97496.28;;;25.62;68.32
498;BME280;39559;48.630;9.162;2022-08-03T09:21:25;97485.63;;;25.62;65.31
498;BME280;39559;48.630;9.162;2022-08-03T09:23:53;97491.31;;;25.67;64.64
498;BME280;39559;48.630;9.162;2022-08-03T09:26:21;97484.72;;;25.88;68.46
498;BME280;39559;48.630;9.162;2022-08-03T09:28:54;97480.44;;;25.95;63.77
498;BME280;39559;48.630;9.162;2022-08-03T09:31:37;97482.00;;;26.14;63.82
498;BME280;39559;48.630;9.162;2022-08-03T09:34:14;97483.16;;;26.12;63.75
498;BME280;39559;48.630;9.162;2022-08-03T09:36:47;97483.69;;;26.23;64.95
498;BME280;39559;48.630;9.162;2022-08-03T09:40:07;97483.84;;;26.55;68.67
498;BME280;39559;48.630;9.162;2022-08-03T09:42:33;97475.06;;;26.71;60.43
498;BME280;39559;48.630;9.162;2022-08-03T09:45:03;97476.69;;;26.88;60.67
498;BME280;39559;48.630;9.162;2022-08-03T09:47:34;97479.75;;;26.69;61.56
498;BME280;39559;48.630;9.162;2022-08-03T09:50:08;97480.41;;;26.71;69.30
498;BME280;39559;48.630;9.162;2022-08-03T09:52:36;97482.72;;;26.82;62.11
498;BME280;39559;48.630;9.162;2022-08-03T09:55:08;97478.00;;;27.00;55.23
498;BME280;39559;48.630;9.162;2022-08-03T09:57:35;97479.16;;;27.14;55.45
498;BME280;39559;48.630;9.162;2022-08-03T10:00:14;97475.03;;;27.04;55.97
498;BME280;39559;48.630;9.162;2022-08-03T10:04:03;97471.78;;;27.25;53.31
498;BME280;39559;48.630;9.162;2022-08-03T10:06:28;97462.44;;;27.45;53.39
498;BME280;39559;48.630;9.162;2022-08-03T10:09:09;97464.56;;;27.50;54.55
498;BME280;39559;48.630;9.162;2022-08-03T10:11:38;97467.38;;;27.88;56.38
498;BME280;39559;48.630;9.162;2022-08-03T10:14:06;97465.28;;;27.75;52.86
498;BME280;39559;48.630;9.162;2022-08-03T10:16:37;97462.00;;;27.65;52.73
498;BME280;39559;48.630;9.162;2022-08-03T10:19:04;97455.56;;;27.51;55.46
498;BME280;39559;48.630;9.162;2022-08-03T10:21:37;97454.56;;;27.83;51.15
498;BME280;39559;48.630;9.162;2022-08-03T10:24:05;97454.28;;;27.78;51.18
498;BME280;39559;48.630;9.162;2022-08-03T10:28:01;97457.22;;;27.91;50.71
498;BME280;39559;48.630;9.162;2022-08-03T10:30:31;97445.03;;;27.89;51.25
498;BME280;39559;48.630;9.162;2022-08-03T10:33:14;97454.94;;;27.80;54.87
498;BME280;39559;48.630;9.162;2022-08-03T10:35:42;97449.09;;;27.76;51.67
498;BME280;39559;48.630;9.162;2022-08-03T10:38:16;97446.69;;;27.98;47.88
498;BME280;39559;48.630;9.162;2022-08-03T10:40:43;97438.09;;;28.11;47.00
498;BME280;39559;48.630;9.162;2022-08-03T10:43:11;97438.72;;;28.13;47.95
498;BME280;39559;48.630;9.162;2022-08-03T10:45:43;97419.91;;;28.06;47.70
498;BME280;39559;48.630;9.162;2022-08-03T10:48:10;97435.19;;;27.89;52.80
498;BME280;39559;48.630;9.162;2022-08-03T10:51:53;97437.41;;;27.77;52.07
498;BME280;39559;48.630;9.162;2022-08-03T10:56:59;97428.06;;;28.36;46.20
498;BME280;39559;48.630;9.162;2022-08-03T11:02:09;97419.34;;;28.34;48.82
498;BME280;39559;48.630;9.162;2022-08-03T11:04:36;97426.56;;;28.33;48.41
498;BME280;39559;48.630;9.162;2022-08-03T11:09:45;97422.56;;;28.52;46.95
498;BME280;39559;48.630;9.162;2022-08-03T11:12:24;97420.66;;;28.61;49.21
498;BME280;39559;48.630;9.162;2022-08-03T11:15:51;97414.78;;;28.81;47.60
498;BME280;39559;48.630;9.162;2022-08-03T11:18:17;97414.97;;;28.94;50.33
498;BME280;39559;48.630;9.162;2022-08-03T11:20:51;97410.84;;;28.77;48.75
498;BME280;39559;48.630;9.162;2022-08-03T11:23:40;97411.66;;;29.07;48.31
498;BME280;39559;48.630;9.162;2022-08-03T11:26:09;97403.75;;;29.28;47.95
498;BME280;39559;48.630;9.162;2022-08-03T11:28:36;97411.31;;;28.95;50.55
498;BME280;39559;48.630;9.162;2022-08-03T11:34:06;97405.78;;;28.97;50.33
498;BME280;39559;48.630;9.162;2022-08-03T11:39:44;97404.22;;;29.32;48.82
498;BME280;39559;48.630;9.162;2022-08-03T11:45:00;97407.03;;;29.60;50.00
498;BME280;39559;48.630;9.162;2022-08-03T11:47:35;97397.69;;;29.35;49.10
498;BME280;39559;48.630;9.162;2022-08-03T11:50:01;97404.09;;;29.55;50.05
498;BME280;39559;48.630;9.162;2022-08-03T11:52:33;97388.09;;;29.77;45.51
498;BME280;39559;48.630;9.162;2022-08-03T11:54:59;97394.53;;;29.82;43.95
498;BME280;39559;48.630;9.162;2022-08-03T11:57:29;97391.88;;;29.82;44.82
498;BME280;39559;48.630;9.162;2022-08-03T11:59:55;97390.97;;;30.18;44.30
498;BME280;39559;48.630;9.162;2022-08-03T12:03:36;97384.59;;;29.98;43.00
498;BME280;39559;48.630;9.162;2022-08-03T12:06:01;97387.41;;;30.33;48.54
498;BME280;39559;48.630;9.162;2022-08-03T12:08:33;97378.53;;;30.89;47.06
498;BME280;39559;48.630;9.162;2022-08-03T12:11:01;97380.69;;;30.72;44.55
498;BME280;39559;48.630;9.162;2022-08-03T12:16:04;97381.88;;;30.62;45.71
498;BME280;39559;48.630;9.162;2022-08-03T12:18:31;97377.53;;;30.61;41.32
498;BME280;39559;48.630;9.162;2022-08-03T12:21:05;97379.50;;;30.81;42.26
498;BME280;39559;48.630;9.162;2022-08-03T12:23:31;97377.56;;;30.68;42.85
498;BME280;39559;48.630;9.162;2022-08-03T12:27:31;97374.81;;;30.55;42.82
498;BME280;39559;48.630;9.162;2022-08-03T12:29:57;97368.97;;;30.73;43.76
498;BME280;39559;48.630;9.162;2022-08-03T12:32:24;97370.28;;;30.55;43.23
498;BME280;39559;48.630;9.162;2022-08-03T12:34:53;97363.78;;;30.71;42.23
498;BME280;39559;48.630;9.162;2022-08-03T12:37:21;97362.66;;;30.87;42.56
498;BME280;39559;48.630;9.162;2022-08-03T12:39:52;97365.81;;;30.97;44.97
498;BME280;39559;48.630;9.162;2022-08-03T12:42:18;97357.53;;;30.92;44.68
498;BME280;39559;48.630;9.162;2022-08-03T12:44:44;97357.19;;;31.02;42.32
498;BME280;39559;48.630;9.162;2022-08-03T12:47:11;97359.53;;;31.18;42.21
498;BME280;39559;48.630;9.162;2022-08-03T12:51:25;97350.53;;;31.39;39.92
498;BME280;39559;48.630;9.162;2022-08-03T12:53:53;97353.63;;;31.43;41.43
498;BME280;39559;48.630;9.162;2022-08-03T12:56:19;97349.63;;;31.19;44.03
498;BME280;39559;48.630;9.162;2022-08-03T12:58:45;97351.50;;;31.18;40.86
498;BME280;39559;48.630;9.162;2022-08-03T13:01:12;97354.16;;;31.18;40.79
498;BME280;39559;48.630;9.162;2022-08-03T13:03:43;97343.59;;;31.59;42.18
498;BME280;39559;48.630;9.162;2022-08-03T13:06:17;97344.66;;;31.71;42.17
498;BME280;39559;48.630;9.162;2022-08-03T13:08:43;97348.38;;;31.83;40.73
498;BME280;39559;48.630;9.162;2022-08-03T13:11:21;97348.84;;;32.00;40.59
498;BME280;39559;48.630;9.162;2022-08-03T13:15:17;97345.50;;;31.85;42.28
498;BME280;39559;48.630;9.162;2022-08-03T13:17:43;97354.56;;;31.70;38.51
498;BME280;39559;48.630;9.162;2022-08-03T13:20:09;97351.34;;;32.15;38.61
498;BME280;39559;48.630;9.162;2022-08-03T13:22:34;97354.41;;;31.99;40.35
498;BME280;39559;48.630;9.162;2022-08-03T13:25:01;97351.16;;;32.17;39.67
498;BME280;39559;48.630;9.162;2022-08-03T13:27:28;97346.59;;;32.10;39.82
498;BME280;39559;48.630;9.162;2022-08-03T13:29:54;97344.88;;;31.96;40.73
498;BME280;39559;48.630;9.162;2022-08-03T13:32:21;97344.50;;;31.99;39.43
498;BME280;39559;48.630;9.162;2022-08-03T13:34:47;97350.75;;;32.13;37.97
498;BME280;39559;48.630;9.162;2022-08-03T13:39:10;97341.13;;;31.70;40.46
498;BME280;39559;48.630;9.162;2022-08-03T13:41:35;97336.59;;;31.77;41.60
498;BME280;39559;48.630;9.162;2022-08-03T13:44:01;97333.94;;;31.71;36.92
498;BME280;39559;48.630;9.162;2022-08-03T13:46:27;97331.66;;;31.74;41.36
498;BME280;39559;48.630;9.162;2022-08-03T13:48:52;97331.81;;;31.53;40.09
498;BME280;39559;48.630;9.162;2022-08-03T13:51:21;97328.13;;;31.74;38.87
498;BME280;39559;48.630;9.162;2022-08-03T13:53:48;97319.47;;;31.79;39.93
498;BME280;39559;48.630;9.162;2022-08-03T13:56:14;97321.97;;;31.93;43.00
498;BME280;39559;48.630;9.162;2022-08-03T13:58:39;97324.41;;;31.82;42.60
498;BME280;39559;48.630;9.162;2022-08-03T14:03:02;97320.59;;;31.43;41.76
498;BME280;39559;48.630;9.162;2022-08-03T14:05:28;97317.22;;;31.95;40.63
498;BME280;39559;48.630;9.162;2022-08-03T14:07:56;97318.75;;;31.36;41.34
498;BME280;39559;48.630;9.162;2022-08-03T14:10:22;97315.72;;;31.53;40.34
498;BME280;39559;48.630;9.162;2022-08-03T14:12:47;97315.25;;;31.43;42.60
498;BME280;39559;48.630;9.162;2022-08-03T14:15:13;97314.28;;;31.57;42.51
498;BME280;39559;48.630;9.162;2022-08-03T14:17:39;97309.81;;;32.04;42.72
498;BME280;39559;48.630;9.162;2022-08-03T14:20:06;97313.50;;;31.76;40.49
498;BME280;39559;48.630;9.162;2022-08-03T14:22:32;97307.25;;;31.56;40.02
498;BME280;39559;48.630;9.162;2022-08-03T14:26:56;97303.88;;;31.41;42.22
498;BME280;39559;48.630;9.162;2022-08-03T14:29:21;97298.09;;;31.37;40.37
498;BME280;39559;48.630;9.162;2022-08-03T14:31:47;97300.16;;;31.35;41.29
498;BME280;39559;48.630;9.162;2022-08-03T14:34:12;97296.81;;;31.26;45.16
498;BME280;39559;48.630;9.162;2022-08-03T14:36:38;97297.03;;;31.31;42.29
498;BME280;39559;48.630;9.162;2022-08-03T14:39:03;97293.53;;;31.37;40.14
498;BME280;39559;48.630;9.162;2022-08-03T14:41:29;97288.97;;;31.25;41.90
498;BME280;39559;48.630;9.162;2022-08-03T14:43:54;97295.94;;;31.12;42.74
498;BME280;39559;48.630;9.162;2022-08-03T14:46:21;97293.47;;;31.11;42.31
498;BME280;39559;48.630;9.162;2022-08-03T14:50:48;97292.34;;;30.57;47.77
498;BME280;39559;48.630;9.162;2022-08-03T14:53:14;97294.72;;;30.73;45.01
498;BME280;39559;48.630;9.162;2022-08-03T14:55:42;97286.06;;;30.78;42.12